createdAt,value
2022-11-20T00:00:17.243Z,100260.26
2022-11-20T00:30:40.301Z,100274.83
2022-11-20T01:00:44.129Z,100277.16
2022-11-20T01:30:47.232Z,100275.13
2022-11-20T02:00:50.525Z,100275.78
2022-11-20T02:30:53.523Z,100259.72
2022-11-20T03:00:56.611Z,100246.06
2022-11-20T03:30:59.619Z,100245.25
2022-11-20T04:01:03.006Z,100238.80
2022-11-20T04:31:07.152Z,100245.63
2022-11-20T05:01:10.049Z,100226.83
2022-11-20T05:31:14.071Z,100226.70
2022-11-20T06:01:16.879Z,100224.11
2022-11-20T06:31:20.603Z,100236.70
2022-11-20T07:01:23.666Z,100216.17
2022-11-20T07:31:27.494Z,100218.72
2022-11-20T08:01:30.839Z,100198.38
2022-11-20T08:31:34.603Z,100182.41
2022-11-20T09:01:57.933Z,100166.45
2022-11-20T09:32:00.939Z,100147.98
2022-11-20T10:02:03.865Z,100133.78
2022-11-20T10:32:07.668Z,100124.75
2022-11-20T11:02:10.479Z,100101.82
2022-11-20T11:32:14.684Z,100107.03
2022-11-20T12:02:17.947Z,100077.73
2022-11-20T12:32:20.975Z,100053.78
2022-11-20T13:02:24.515Z,100029.05
2022-11-20T13:32:28.538Z,100004.27
2022-11-20T14:02:32.100Z,99997.52
2022-11-20T14:32:35.223Z,99976.98
2022-11-20T15:02:38.396Z,99969.20
2022-11-20T15:32:41.390Z,99960.55
2022-11-20T16:02:45.288Z,99957.92
2022-11-20T16:32:49.429Z,99933.03
2022-11-20T17:02:52.841Z,99921.91
2022-11-20T17:32:56.431Z,99889.28
2022-11-20T18:02:59.422Z,99901.93
2022-11-20T18:33:03.069Z,99891.70
2022-11-20T19:03:06.091Z,99901.75
2022-11-20T19:33:10.299Z,99887.24
2022-11-20T20:03:13.319Z,99883.02
2022-11-20T20:33:19.630Z,99881.28
2022-11-20T21:03:23.833Z,99898.00
2022-11-20T21:33:27.012Z,99889.80
2022-11-20T22:03:30.280Z,99877.17
2022-11-20T22:33:33.425Z,99864.72
2022-11-20T23:03:37.140Z,99836.94
2022-11-20T23:33:40.597Z,99810.99
